Terminal Aerodrome Forecast
Issued by NWS Central Illinois

Home | Current Version | Previous Version | Text Only | Print | Product List | Glossary On
Versions: 1 2 3 4 5 6 7 8 9 10 11 12 13 14 15 16 17 18 19 20 21 22 23 24 25
465
FTUS43 KILX 282115 AAA
TAFPIA
TAF AMD
KPIA 282115Z 2821/2918 20014G24KT P6SM SCT040
     FM290000 20012KT P6SM VCTS SCT035CB BKN060
      TEMPO 2901/2902 3SM TSRA BR BKN025CB
     FM290200 20007KT P6SM SCT040 BKN120
     FM291400 26011KT P6SM SCT030=

USA.gov is the U.S. government's official web portal to all federal, state and local government web resources and services.